createdAt,value
2023-06-05T00:01:45.139Z,16.74
2023-06-05T00:04:14.463Z,16.78
2023-06-05T00:06:43.646Z,16.71
2023-06-05T00:09:11.708Z,16.73
2023-06-05T00:11:39.934Z,17.10
2023-06-05T00:14:09.671Z,16.70
2023-06-05T00:16:37.823Z,16.48
2023-06-05T00:19:06.667Z,16.45
2023-06-05T00:21:37.316Z,16.33
2023-06-05T00:24:05.551Z,16.38
2023-06-05T00:26:33.227Z,16.49
2023-06-05T00:29:01.536Z,16.49
2023-06-05T00:31:29.582Z,16.49
2023-06-05T00:33:57.417Z,16.31
2023-06-05T00:36:25.736Z,16.51
2023-06-05T00:38:55.341Z,16.30
2023-06-05T00:41:23.800Z,16.33
2023-06-05T00:43:59.980Z,16.28
2023-06-05T00:46:37.930Z,16.17
2023-06-05T00:49:12.652Z,16.10
2023-06-05T00:51:50.302Z,15.98
2023-06-05T00:54:35.888Z,15.89
2023-06-05T00:57:12.561Z,15.92
2023-06-05T00:59:53.370Z,15.99
2023-06-05T01:02:26.380Z,15.93
2023-06-05T01:04:59.450Z,15.88
2023-06-05T01:07:29.557Z,15.91
2023-06-05T01:10:04.114Z,15.95
2023-06-05T01:12:41.406Z,15.91
2023-06-05T01:15:11.561Z,15.90
2023-06-05T01:17:40.821Z,15.88
2023-06-05T01:20:11.038Z,16.09
2023-06-05T01:22:39.571Z,16.15
2023-06-05T01:25:10.672Z,15.85
2023-06-05T01:27:47.126Z,15.88
2023-06-05T01:30:30.076Z,15.82
2023-06-05T01:33:03.540Z,15.83
2023-06-05T01:49:26.632Z,15.43
2023-06-05T01:51:56.073Z,15.62
2023-06-05T01:54:24.983Z,15.58
2023-06-05T01:56:54.185Z,15.58
2023-06-05T01:59:22.956Z,15.51
2023-06-05T02:01:52.295Z,15.52
2023-06-05T02:04:20.702Z,15.54
2023-06-05T02:06:50.480Z,15.53
2023-06-05T02:09:18.320Z,15.50
2023-06-05T02:11:48.647Z,15.56
2023-06-05T02:14:18.021Z,15.34
2023-06-05T02:16:49.435Z,15.44
2023-06-05T02:19:18.203Z,15.24
2023-06-05T02:21:46.008Z,15.15
2023-06-05T02:24:13.801Z,15.10
2023-06-05T02:26:41.610Z,15.13
2023-06-05T02:29:09.499Z,15.22
2023-06-05T02:31:38.847Z,15.22
2023-06-05T02:34:07.073Z,15.19
2023-06-05T02:36:36.412Z,15.18
2023-06-05T02:39:05.896Z,15.11
2023-06-05T02:41:36.155Z,15.31
2023-06-05T02:44:05.938Z,15.10
2023-06-05T02:46:34.159Z,15.00
2023-06-05T02:49:04.867Z,15.03
2023-06-05T02:51:32.708Z,15.05
2023-06-05T02:54:01.046Z,15.07
2023-06-05T02:56:28.997Z,14.71
2023-06-05T02:58:57.672Z,14.75
2023-06-05T03:01:26.448Z,14.68
2023-06-05T03:03:54.626Z,14.55
2023-06-05T03:06:29.254Z,14.70
2023-06-05T03:08:58.996Z,14.77
2023-06-05T03:11:27.427Z,14.72
2023-06-05T03:13:56.514Z,14.68
2023-06-05T03:16:35.471Z,14.49
2023-06-05T03:19:03.636Z,14.52
2023-06-05T03:21:33.273Z,14.54
2023-06-05T03:24:02.662Z,14.37
2023-06-05T03:26:31.583Z,14.57
2023-06-05T03:28:59.803Z,14.46
2023-06-05T03:31:31.437Z,14.50
2023-06-05T03:34:00.900Z,14.43
2023-06-05T03:36:29.683Z,14.41
2023-06-05T03:39:00.110Z,14.48
2023-06-05T03:41:28.082Z,14.53
2023-06-05T03:43:57.979Z,14.53
2023-06-05T03:46:26.723Z,14.73
2023-06-05T03:48:59.581Z,14.68
2023-06-05T03:51:30.734Z,14.53
2023-06-05T03:54:01.796Z,14.48
2023-06-05T03:56:35.391Z,14.41
2023-06-05T03:59:17.623Z,14.46
2023-06-05T04:01:45.593Z,14.62
2023-06-05T04:04:13.836Z,14.56
2023-06-05T04:06:42.448Z,14.67
2023-06-05T04:09:13.545Z,14.73
2023-06-05T04:11:45.253Z,14.68
2023-06-05T04:14:13.978Z,14.73
2023-06-05T04:16:43.936Z,14.65
2023-06-05T04:19:17.550Z,14.81
2023-06-05T04:21:48.572Z,14.87
2023-06-05T04:24:18.309Z,14.73
2023-06-05T04:26:46.302Z,14.71
2023-06-05T04:29:16.751Z,14.89
2023-06-05T04:31:46.351Z,14.99
2023-06-05T04:34:14.297Z,14.91
2023-06-05T04:36:42.695Z,14.76
2023-06-05T04:39:15.697Z,14.90
2023-06-05T04:41:50.423Z,14.96
2023-06-05T04:44:26.405Z,14.92
2023-06-05T04:46:54.621Z,14.95
2023-06-05T04:49:24.608Z,15.15
2023-06-05T04:51:54.343Z,15.19
2023-06-05T04:54:23.256Z,15.28
2023-06-05T04:56:53.812Z,15.51
2023-06-05T04:59:23.482Z,15.59
2023-06-05T05:01:53.674Z,15.54
2023-06-05T05:04:22.790Z,15.35
2023-06-05T05:06:52.911Z,15.31
2023-06-05T05:09:22.255Z,15.61
2023-06-05T05:11:50.880Z,15.56
2023-06-05T05:14:20.222Z,15.73
2023-06-05T05:16:48.936Z,15.81
2023-06-05T05:19:17.478Z,15.76
2023-06-05T05:21:45.690Z,15.76
2023-06-05T05:24:13.500Z,15.66
2023-06-05T05:26:41.810Z,15.79
2023-06-05T05:29:10.001Z,16.24
2023-06-05T05:31:39.382Z,16.40
2023-06-05T05:34:07.650Z,16.29
2023-06-05T05:36:35.700Z,16.68
2023-06-05T05:39:03.561Z,17.28
2023-06-05T05:41:31.423Z,17.29
2023-06-05T05:43:59.348Z,16.84
2023-06-05T05:46:27.973Z,16.85
2023-06-05T05:48:57.430Z,17.18
2023-06-05T05:51:25.803Z,17.26
2023-06-05T05:53:54.685Z,17.61
2023-06-05T05:56:22.813Z,17.63
2023-06-05T05:58:51.277Z,17.85
2023-06-05T06:01:19.846Z,17.90
2023-06-05T06:03:48.513Z,17.78
2023-06-05T06:06:18.843Z,17.65
2023-06-05T06:08:47.827Z,17.79
2023-06-05T06:11:16.619Z,17.56
2023-06-05T06:13:45.082Z,17.51
2023-06-05T06:16:14.067Z,17.29
2023-06-05T06:18:42.464Z,17.31
2023-06-05T06:21:13.730Z,17.33
2023-06-05T06:23:47.666Z,17.32
2023-06-05T06:26:19.208Z,17.40
2023-06-05T06:28:49.790Z,17.76
2023-06-05T06:31:18.707Z,17.58
2023-06-05T06:33:46.473Z,17.67
2023-06-05T06:36:14.667Z,17.73
2023-06-05T06:38:43.777Z,18.17
2023-06-05T06:41:11.630Z,17.81
2023-06-05T06:43:39.460Z,17.93
2023-06-05T06:46:07.754Z,18.07
2023-06-05T06:48:35.977Z,18.09
2023-06-05T06:51:04.790Z,18.09
2023-06-05T06:53:32.813Z,18.25
2023-06-05T06:56:02.338Z,18.47
2023-06-05T06:58:30.152Z,18.63
2023-06-05T07:00:58.271Z,18.64
2023-06-05T07:03:26.917Z,18.59
2023-06-05T07:05:55.100Z,18.58
2023-06-05T07:08:23.301Z,18.99
2023-06-05T07:10:51.702Z,18.94
2023-06-05T07:13:21.020Z,19.00
2023-06-05T07:15:49.255Z,18.83
2023-06-05T07:18:21.701Z,18.82
2023-06-05T07:20:49.759Z,19.03
2023-06-05T07:23:20.935Z,19.21
2023-06-05T07:25:49.577Z,19.44
2023-06-05T07:28:17.658Z,19.26
2023-06-05T07:30:46.820Z,19.31
2023-06-05T07:33:29.258Z,19.59
2023-06-05T07:35:58.755Z,19.91
2023-06-05T07:38:27.773Z,19.81
2023-06-05T07:40:57.819Z,20.23
2023-06-05T07:43:26.196Z,19.86
2023-06-05T07:45:55.906Z,20.23
2023-06-05T07:48:23.872Z,20.55
2023-06-05T07:50:51.884Z,20.79
2023-06-05T07:53:20.119Z,20.58
2023-06-05T07:55:47.955Z,20.72
2023-06-05T07:58:16.861Z,20.51
2023-06-05T08:00:49.040Z,20.63
2023-06-05T08:03:21.323Z,20.82
2023-06-05T08:05:50.059Z,21.18
2023-06-05T08:08:18.292Z,21.29
2023-06-05T08:10:46.612Z,21.32
2023-06-05T08:13:14.740Z,21.20
2023-06-05T08:15:42.603Z,21.47
2023-06-05T08:18:10.766Z,22.00
2023-06-05T08:20:39.972Z,21.65
2023-06-05T08:23:08.039Z,21.73
2023-06-05T08:25:36.492Z,21.77
2023-06-05T08:28:04.606Z,21.73
2023-06-05T08:30:32.667Z,21.92
2023-06-05T08:33:01.551Z,22.24
2023-06-05T08:35:29.754Z,22.25
2023-06-05T08:37:59.469Z,22.28
2023-06-05T08:40:30.497Z,22.19
2023-06-05T08:42:59.310Z,22.46
2023-06-05T08:45:27.241Z,22.30
2023-06-05T08:47:58.046Z,22.28
2023-06-05T08:50:27.073Z,22.47
2023-06-05T08:52:58.544Z,22.96
2023-06-05T08:55:28.765Z,22.68
2023-06-05T08:57:56.852Z,22.75
2023-06-05T09:00:24.865Z,22.87
2023-06-05T09:02:52.781Z,23.16
2023-06-05T09:05:20.740Z,23.36
2023-06-05T09:07:48.807Z,23.67
2023-06-05T09:10:24.658Z,24.03
2023-06-05T09:12:58.591Z,24.11
2023-06-05T09:15:28.567Z,24.36
2023-06-05T09:18:09.410Z,24.27
2023-06-05T09:20:38.813Z,24.51
2023-06-05T09:23:26.414Z,24.81
2023-06-05T09:25:55.955Z,25.30
2023-06-05T09:28:25.142Z,25.22
2023-06-05T09:30:58.336Z,25.39
2023-06-05T09:33:27.579Z,25.67
2023-06-05T09:36:09.801Z,25.55
2023-06-05T09:38:39.333Z,26.04
2023-06-05T09:41:08.082Z,25.84
2023-06-05T09:43:38.902Z,26.16
2023-06-05T09:46:10.449Z,26.76
2023-06-05T09:48:39.196Z,27.10
2023-06-05T09:51:13.283Z,28.07
2023-06-05T09:53:44.774Z,28.40
2023-06-05T09:56:15.199Z,29.43
2023-06-05T09:58:47.734Z,31.20
2023-06-05T10:01:18.870Z,31.83
2023-06-05T10:03:54.992Z,32.51
2023-06-05T10:06:25.226Z,33.15
2023-06-05T10:08:56.307Z,33.24
2023-06-05T10:11:25.850Z,33.51
2023-06-05T10:13:55.986Z,32.55
2023-06-05T10:16:26.993Z,33.13
2023-06-05T10:18:56.728Z,33.71
2023-06-05T10:21:25.581Z,33.68
2023-06-05T10:23:59.383Z,34.44
2023-06-05T10:26:43.102Z,33.84
2023-06-05T10:29:30.021Z,34.07
2023-06-05T10:32:04.341Z,34.49
2023-06-05T10:34:49.579Z,34.11
2023-06-05T10:37:41.254Z,33.94
2023-06-05T10:40:11.405Z,33.46
2023-06-05T10:42:40.025Z,33.93
2023-06-05T10:45:10.517Z,34.31
2023-06-05T10:47:52.160Z,35.11
2023-06-05T10:50:32.346Z,35.32
2023-06-05T10:53:01.099Z,34.59
2023-06-05T10:55:43.326Z,35.33
2023-06-05T10:58:14.683Z,36.03
2023-06-05T11:01:16.192Z,35.63
2023-06-05T11:03:59.000Z,35.82
2023-06-05T11:06:27.436Z,35.41
2023-06-05T11:09:13.700Z,35.14
2023-06-05T11:12:03.147Z,34.91
2023-06-05T11:14:48.853Z,35.93
2023-06-05T11:17:30.183Z,35.58
2023-06-05T11:19:59.507Z,34.81
2023-06-05T11:22:28.353Z,35.13
2023-06-05T11:25:27.823Z,35.32
2023-06-05T11:27:57.211Z,35.23
2023-06-05T11:30:43.814Z,34.87
2023-06-05T11:33:14.586Z,35.09
2023-06-05T11:35:46.116Z,35.84
2023-06-05T11:38:16.974Z,35.37
2023-06-05T11:40:46.870Z,35.03
2023-06-05T11:43:16.217Z,34.75
2023-06-05T11:45:51.218Z,33.74
2023-06-05T11:48:19.110Z,33.90
2023-06-05T11:50:59.550Z,34.04
2023-06-05T11:53:28.341Z,34.06
2023-06-05T11:56:07.757Z,34.36
2023-06-05T11:58:38.103Z,34.47
2023-06-05T12:01:08.036Z,34.96
2023-06-05T12:03:37.057Z,34.38
2023-06-05T12:06:07.202Z,32.90
2023-06-05T12:08:36.436Z,33.58
2023-06-05T12:11:05.392Z,34.00
2023-06-05T12:13:54.961Z,34.34
2023-06-05T12:16:32.874Z,34.88
2023-06-05T12:19:13.926Z,34.57
2023-06-05T12:21:45.990Z,34.81
2023-06-05T12:24:14.261Z,33.89
2023-06-05T12:26:55.942Z,33.76
2023-06-05T12:29:26.315Z,33.54
2023-06-05T12:31:55.008Z,33.51
2023-06-05T12:37:23.848Z,34.00
2023-06-05T12:39:51.597Z,33.09
2023-06-05T12:42:19.448Z,33.71
2023-06-05T12:44:47.469Z,33.28
2023-06-05T12:47:15.687Z,33.22
2023-06-05T12:49:43.630Z,33.96
2023-06-05T12:52:11.689Z,33.81
2023-06-05T12:54:41.598Z,33.53
2023-06-05T12:57:13.113Z,33.77
2023-06-05T12:59:41.611Z,33.05
2023-06-05T13:02:09.528Z,32.72
2023-06-05T13:04:38.177Z,32.75
2023-06-05T13:07:06.788Z,32.98
2023-06-05T13:09:35.053Z,33.58
2023-06-05T13:12:05.199Z,33.10
2023-06-05T13:14:33.382Z,32.76
2023-06-05T13:17:02.080Z,32.38
2023-06-05T13:19:30.163Z,32.02
2023-06-05T13:21:58.164Z,32.13
2023-06-05T13:24:26.338Z,32.39
2023-06-05T13:26:54.577Z,31.85
2023-06-05T13:29:23.750Z,32.70
2023-06-05T13:31:52.148Z,32.54
2023-06-05T13:34:20.092Z,32.34
2023-06-05T13:36:49.512Z,32.39
2023-06-05T13:39:19.742Z,31.63
2023-06-05T13:41:47.643Z,31.70
2023-06-05T13:44:15.935Z,31.46
2023-06-05T13:46:45.306Z,31.02
2023-06-05T13:49:13.291Z,31.27
2023-06-05T13:51:41.327Z,30.91
2023-06-05T13:54:09.352Z,31.41
2023-06-05T13:56:37.416Z,31.76
2023-06-05T13:59:05.384Z,30.69
2023-06-05T14:01:33.424Z,30.54
2023-06-05T14:04:02.784Z,30.36
2023-06-05T14:06:31.664Z,29.85
2023-06-05T14:08:59.617Z,29.49
2023-06-05T14:11:27.688Z,29.67
2023-06-05T14:13:55.901Z,29.25
2023-06-05T14:16:24.091Z,28.72
2023-06-05T14:18:52.432Z,28.86
2023-06-05T14:21:24.997Z,28.87
2023-06-05T14:23:53.713Z,29.15
2023-06-05T14:26:22.819Z,28.58
2023-06-05T14:28:51.356Z,28.49
2023-06-05T14:31:19.402Z,28.26
2023-06-05T14:33:47.339Z,28.87
2023-06-05T14:36:16.346Z,28.50
2023-06-05T14:38:45.602Z,28.90
2023-06-05T14:41:13.466Z,28.86
2023-06-05T14:43:41.271Z,28.71
2023-06-05T14:46:09.777Z,28.61
2023-06-05T14:48:37.722Z,28.53
2023-06-05T14:51:06.194Z,28.29
2023-06-05T14:53:34.253Z,28.25
2023-06-05T14:56:03.419Z,28.32
2023-06-05T14:58:31.265Z,28.55
2023-06-05T15:00:59.669Z,28.18
2023-06-05T15:03:28.381Z,28.10
2023-06-05T15:05:58.742Z,28.27
2023-06-05T15:08:28.247Z,28.15
2023-06-05T15:10:56.175Z,28.11
2023-06-05T15:13:25.708Z,28.02
2023-06-05T15:15:53.610Z,28.03
2023-06-05T15:18:21.514Z,27.90
2023-06-05T15:20:49.846Z,27.96
2023-06-05T15:23:17.724Z,27.90
2023-06-05T15:25:45.989Z,28.08
2023-06-05T15:28:13.923Z,27.71
2023-06-05T15:30:43.116Z,27.09
2023-06-05T15:33:11.966Z,26.62
2023-06-05T15:35:43.904Z,26.42
2023-06-05T15:38:11.874Z,26.59
2023-06-05T15:40:39.814Z,26.48
2023-06-05T15:43:09.767Z,26.54
2023-06-05T15:45:38.342Z,26.74
2023-06-05T15:48:07.951Z,26.80
2023-06-05T15:50:36.606Z,26.98
2023-06-05T15:53:04.749Z,27.02
2023-06-05T15:55:33.057Z,27.13
2023-06-05T15:58:01.113Z,27.35
2023-06-05T16:00:29.216Z,27.10
2023-06-05T16:02:57.462Z,26.86
2023-06-05T16:05:27.824Z,26.88
2023-06-05T16:07:55.838Z,26.64
2023-06-05T16:10:23.800Z,26.65
2023-06-05T16:12:52.698Z,26.77
2023-06-05T16:15:20.632Z,27.00
2023-06-05T16:17:50.671Z,26.87
2023-06-05T16:20:18.666Z,27.00
2023-06-05T16:22:49.175Z,26.79
2023-06-05T16:25:17.526Z,26.96
2023-06-05T16:27:45.385Z,26.82
2023-06-05T16:30:13.376Z,26.80
2023-06-05T16:32:41.267Z,26.49
2023-06-05T16:35:10.063Z,26.60
2023-06-05T16:37:38.157Z,26.57
2023-06-05T16:40:09.067Z,26.47
2023-06-05T16:42:36.892Z,26.41
2023-06-05T16:45:05.452Z,26.50
2023-06-05T16:47:33.427Z,26.59
2023-06-05T16:50:01.587Z,26.47
2023-06-05T16:52:29.521Z,26.40
2023-06-05T16:54:57.428Z,26.06
2023-06-05T16:57:26.948Z,26.28
2023-06-05T16:59:54.760Z,26.00
2023-06-05T17:02:22.851Z,26.17
2023-06-05T17:04:51.081Z,26.09
2023-06-05T17:07:19.549Z,26.30
2023-06-05T17:09:47.695Z,25.92
2023-06-05T17:12:15.567Z,25.77
2023-06-05T17:14:44.730Z,25.93
2023-06-05T17:17:12.857Z,26.06
2023-06-05T17:19:40.688Z,25.88
2023-06-05T17:22:08.673Z,25.95
2023-06-05T17:24:36.673Z,25.95
2023-06-05T17:27:05.519Z,25.81
2023-06-05T17:29:33.647Z,25.73
2023-06-05T17:32:03.678Z,25.88
2023-06-05T17:34:32.055Z,25.95
2023-06-05T17:37:00.050Z,25.84
2023-06-05T17:39:29.890Z,25.59
2023-06-05T17:41:57.795Z,25.48
2023-06-05T17:44:26.233Z,25.52
2023-06-05T17:46:54.310Z,25.33
2023-06-05T17:49:23.740Z,25.21
2023-06-05T17:51:51.840Z,25.16
2023-06-05T17:54:22.204Z,25.23
2023-06-05T17:56:51.075Z,25.37
2023-06-05T17:59:19.114Z,25.20
2023-06-05T18:01:47.262Z,25.44
2023-06-05T18:04:15.590Z,25.28
2023-06-05T18:06:45.016Z,25.27
2023-06-05T18:09:13.271Z,25.27
2023-06-05T18:11:44.041Z,25.12
2023-06-05T18:14:12.149Z,24.95
2023-06-05T18:16:40.237Z,25.02
2023-06-05T18:19:08.261Z,24.85
2023-06-05T18:21:38.337Z,24.71
2023-06-05T18:24:08.080Z,24.66
2023-06-05T18:26:36.217Z,24.50
2023-06-05T18:29:04.100Z,24.40
2023-06-05T18:31:32.131Z,24.46
2023-06-05T18:34:00.114Z,24.46
2023-06-05T18:36:27.977Z,24.38
2023-06-05T18:38:55.854Z,24.35
2023-06-05T18:41:25.167Z,24.05
2023-06-05T18:43:53.010Z,23.92
2023-06-05T18:46:20.947Z,23.68
2023-06-05T18:48:48.878Z,23.58
2023-06-05T18:51:17.350Z,23.54
2023-06-05T18:53:45.530Z,23.64
2023-06-05T18:56:13.707Z,23.74
2023-06-05T18:58:43.325Z,23.38
2023-06-05T19:01:12.040Z,23.45
2023-06-05T19:03:40.530Z,23.42
2023-06-05T19:06:08.865Z,23.16
2023-06-05T19:08:37.399Z,23.32
2023-06-05T19:11:05.507Z,22.99
2023-06-05T19:13:33.451Z,22.95
2023-06-05T19:16:03.351Z,23.07
2023-06-05T19:18:31.372Z,22.96
2023-06-05T19:21:00.317Z,22.88
2023-06-05T19:23:28.673Z,23.08
2023-06-05T19:28:24.605Z,22.64
2023-06-05T19:30:53.247Z,22.46
2023-06-05T19:33:22.593Z,22.44
2023-06-05T19:35:51.463Z,22.35
2023-06-05T19:38:19.387Z,22.42
2023-06-05T19:40:47.407Z,22.50
2023-06-05T19:43:16.087Z,22.51
2023-06-05T19:45:44.156Z,22.20
2023-06-05T19:48:12.079Z,22.17
2023-06-05T19:50:41.643Z,22.48
2023-06-05T19:53:09.743Z,22.20
2023-06-05T19:55:38.965Z,22.23
2023-06-05T19:58:07.177Z,22.11
2023-06-05T20:00:35.151Z,21.87
2023-06-05T20:03:03.081Z,21.85
2023-06-05T20:05:32.290Z,21.91
2023-06-05T20:08:01.500Z,21.86
2023-06-05T20:10:29.376Z,21.77
2023-06-05T20:12:57.356Z,21.78
2023-06-05T20:15:25.388Z,21.63
2023-06-05T20:17:53.267Z,21.45
2023-06-05T20:20:22.009Z,21.40
2023-06-05T20:22:50.078Z,21.51
2023-06-05T20:25:20.388Z,21.73
2023-06-05T20:27:50.143Z,21.60
2023-06-05T20:30:19.498Z,21.51
2023-06-05T20:32:47.368Z,21.41
2023-06-05T20:35:21.185Z,21.51
2023-06-05T20:37:49.724Z,21.45
2023-06-05T20:40:19.171Z,21.76
2023-06-05T20:42:47.173Z,21.50
2023-06-05T20:45:15.035Z,21.60
2023-06-05T20:47:43.928Z,21.66
2023-06-05T20:50:12.953Z,21.52
2023-06-05T20:52:41.505Z,21.84
2023-06-05T20:55:10.453Z,21.87
2023-06-05T20:57:39.765Z,21.91
2023-06-05T21:00:10.651Z,21.68
2023-06-05T21:02:38.719Z,21.52
2023-06-05T21:05:08.086Z,21.52
2023-06-05T21:07:36.303Z,21.44
2023-06-05T21:10:04.841Z,21.41
2023-06-05T21:12:32.715Z,21.14
2023-06-05T21:15:01.945Z,21.20
2023-06-05T21:17:29.924Z,21.33
2023-06-05T21:19:57.791Z,21.23
2023-06-05T21:22:25.986Z,21.36
2023-06-05T21:24:54.386Z,21.34
2023-06-05T21:27:24.164Z,21.36
2023-06-05T21:29:52.598Z,20.97
2023-06-05T21:32:21.984Z,20.97
2023-06-05T21:34:50.612Z,20.96
2023-06-05T21:37:20.300Z,20.83
2023-06-05T21:39:48.248Z,20.52
2023-06-05T21:42:17.437Z,20.53
2023-06-05T21:44:46.426Z,20.37
2023-06-05T21:47:15.003Z,20.32
2023-06-05T21:49:44.774Z,20.24
2023-06-05T21:52:13.479Z,20.22
2023-06-05T21:54:43.188Z,20.06
2023-06-05T21:57:11.736Z,20.04
2023-06-05T21:59:39.741Z,20.13
2023-06-05T22:02:09.022Z,20.07
2023-06-05T22:04:38.600Z,20.03
2023-06-05T22:07:08.169Z,20.04
2023-06-05T22:09:38.586Z,20.00
2023-06-05T22:12:07.679Z,19.78
2023-06-05T22:14:41.354Z,19.69
2023-06-05T22:17:09.951Z,19.80
2023-06-05T22:19:38.927Z,19.68
2023-06-05T22:22:08.663Z,19.76
2023-06-05T22:24:38.329Z,19.68
2023-06-05T22:27:07.960Z,19.70
2023-06-05T22:29:35.916Z,19.70
2023-06-05T22:32:07.783Z,19.55
2023-06-05T22:34:35.744Z,19.31
2023-06-05T22:37:05.578Z,19.33
2023-06-05T22:39:34.893Z,19.41
2023-06-05T22:42:02.619Z,19.50
2023-06-05T22:44:31.323Z,19.33
2023-06-05T22:46:59.891Z,19.12
2023-06-05T22:49:28.296Z,18.93
2023-06-05T22:51:57.055Z,19.05
2023-06-05T22:54:25.579Z,19.09
2023-06-05T22:56:54.762Z,18.99
2023-06-05T22:59:22.634Z,18.84
2023-06-05T23:01:50.633Z,18.76
2023-06-05T23:04:21.845Z,18.75
2023-06-05T23:06:51.350Z,18.80
2023-06-05T23:09:19.439Z,18.60
2023-06-05T23:11:47.801Z,18.42
2023-06-05T23:14:18.265Z,18.23
2023-06-05T23:16:46.102Z,18.29
2023-06-05T23:19:14.070Z,18.39
2023-06-05T23:21:41.904Z,18.20
2023-06-05T23:24:10.049Z,18.10
2023-06-05T23:26:38.684Z,18.06
2023-06-05T23:29:06.508Z,18.20
2023-06-05T23:31:37.862Z,18.11
2023-06-05T23:34:05.869Z,18.14
2023-06-05T23:36:35.770Z,18.38
2023-06-05T23:39:04.156Z,18.35
2023-06-05T23:41:32.510Z,18.39
2023-06-05T23:44:00.575Z,18.08
2023-06-05T23:46:28.661Z,17.95
2023-06-05T23:48:58.076Z,17.96
2023-06-05T23:51:30.114Z,18.02
2023-06-05T23:53:58.522Z,18.02
2023-06-05T23:56:26.886Z,17.98
2023-06-05T23:58:55.198Z,18.09
